EDLP

Paderborn Lippstadt Airport

Paderborn, Germany
METAR EDLP 152150Z 22003KT 180V260 CAVOK 20/13 Q1019
Observed Flight Rules
Aug-15 @ 21:50 UTC (36 minutes ago) Visual Flight Rules
Wind Visibility Clouds
220° at 3 knots 10,000+ meters
  • Clear skies
Temperatures Readings
Current 20°C / 68°F
Dewpoint 13°C / 55°F
Humidity 64%
Altimeter 30.09" Hg
Pressure 1019 hPa
Elevation 213
METAR EDLP 152150Z 22003KT 180V260 CAVOK 20/13 Q1019
Observed Flight Rules
Aug-15 @ 21:50 UTC
(36 minutes ago)
VFR
Wind Visibility
220° at 3 knots 10,000+ meters
Clouds
  • Clear skies
Temperature Dewpoint
20°C / 68°F 13°C / 55°F
Humidity Altimeter Pressure
64% 30.09" Hg 1019 hPa